Tsu, Japan

7:17 PM JST on November 29, 2014 (GMT +0900)
SUZUKA | Change Station
CLOSE
Current Station
Personal Weather Station
Location: %u9234%u9E7F%u5E02, %U4E09%U91CD%U770C
Elevation: 33 ft
Nearby Weather Stations

Elev 33 ft 34.88 °N, 136.57 °E | Updated 1 second ago

Partly Cloudy
Partly Cloudy
58.8 °F
Feels Like 58.8 °F
N
3.0
Wind Variable Wind from NW
Gusts 7.0 mph

Today
High -- | Low -- °F
--% Chance of Precip.
Yesterday
High -- | Low -- °F
Precip. -- in
6:40 AM 4:43 PM
Waxing Crescent, 50% visible
Pressure 29.98 in
Visibility 6.2 miles
Clouds Few 2000 ft
Dew Point 50 °F
Humidity 72%
Rainfall 0.49 in
Snow Depth Not available.
UV 0 out of 12
Pollen Not available.
Air Quality Not available.
Flu Activity Not available.
METAR RJGG 291000Z 31019KT 9999 FEW020 16/11 Q1015 NOSIG

More Conditions Fewer Conditions

Pressure 29.98 in
Visibility 6.2 miles
Clouds Few 2000 ft
Dew Point 50 °F
Humidity 72%
Rainfall 0.49 in
Snow Depth Not available.
UV 0 out of 12
Pollen Not available.
Air Quality Not available.
Flu Activity Not available.
METAR RJGG 291000Z 31019KT 9999 FEW020 16/11 Q1015 NOSIG

More Conditions Fewer Conditions

10-Day Weather Forecast

Almanac

Astronomy

Nov. 29, 2014 Rise Set
Actual Time
Civil Twilight
Nautical Twilight
Astronomical Twilight
Moon
Length of Visible Light
Length of Day
Tomorrow will be .
, % of the Moon is Illuminated

Today's Extremes

Country Highs Country Lows

Community

WunderPhotos

Upload Photos

1,774,442 photos uploaded!

WunderBlogs® & News

Nearby

Air Quality

  Air Quality AQ Index Pollutant
Not available.

Snow Depth

Station Depth Elevation

Earthquake Activity

City Distance Mag. Time & Date
Minimum magnitude displayed is 2.5.

Coastal Water Temperatures

Place Temperature

Nearby Weather Stations